sensor_id;sensor_type;location;lat;lon;timestamp;pressure;altitude;pressure_sealevel;temperature
67353;BMP180;54238;52.278;21.056;2023-03-01T00:01:29;101724.00;;;-0.98
67353;BMP180;54238;52.278;21.056;2023-03-01T00:03:59;101717.00;;;-1.00
67353;BMP180;54238;52.278;21.056;2023-03-01T00:06:27;101712.00;;;-1.00
67353;BMP180;54238;52.278;21.056;2023-03-01T00:08:57;101707.40;;;-0.98
67353;BMP180;54238;52.278;21.056;2023-03-01T00:11:29;101713.20;;;-0.98
67353;BMP180;54238;52.278;21.056;2023-03-01T00:14:01;101708.40;;;-1.00
67353;BMP180;54238;52.278;21.056;2023-03-01T00:16:44;101706.80;;;-1.00
67353;BMP180;54238;52.278;21.056;2023-03-01T00:19:16;101700.20;;;-1.00
67353;BMP180;54238;52.278;21.056;2023-03-01T00:21:51;101704.00;;;-1.00
67353;BMP180;54238;52.278;21.056;2023-03-01T00:24:18;101697.40;;;-1.00
67353;BMP180;54238;52.278;21.056;2023-03-01T00:26:52;101692.00;;;-1.06
67353;BMP180;54238;52.278;21.056;2023-03-01T00:29:24;101693.40;;;-1.10
67353;BMP180;54238;52.278;21.056;2023-03-01T00:31:59;101692.40;;;-1.10
67353;BMP180;54238;52.278;21.056;2023-03-01T00:34:28;101685.00;;;-1.10
67353;BMP180;54238;52.278;21.056;2023-03-01T00:37:00;101684.00;;;-1.14
67353;BMP180;54238;52.278;21.056;2023-03-01T00:39:37;101688.40;;;-1.14
67353;BMP180;54238;52.278;21.056;2023-03-01T00:42:04;101694.20;;;-1.18
67353;BMP180;54238;52.278;21.056;2023-03-01T00:44:39;101694.20;;;-1.20
67353;BMP180;54238;52.278;21.056;2023-03-01T00:47:08;101695.40;;;-1.18
67353;BMP180;54238;52.278;21.056;2023-03-01T00:49:38;101692.40;;;-1.20
67353;BMP180;54238;52.278;21.056;2023-03-01T00:52:12;101689.60;;;-1.20
67353;BMP180;54238;52.278;21.056;2023-03-01T00:54:39;101691.40;;;-1.20
67353;BMP180;54238;52.278;21.056;2023-03-01T00:57:06;101692.00;;;-1.20
67353;BMP180;54238;52.278;21.056;2023-03-01T00:59:35;101690.40;;;-1.20
67353;BMP180;54238;52.278;21.056;2023-03-01T01:02:07;101687.60;;;-1.20
67353;BMP180;54238;52.278;21.056;2023-03-01T01:04:36;101686.60;;;-1.20
67353;BMP180;54238;52.278;21.056;2023-03-01T01:07:05;101676.60;;;-1.20
67353;BMP180;54238;52.278;21.056;2023-03-01T01:09:35;101672.20;;;-1.20
67353;BMP180;54238;52.278;21.056;2023-03-01T01:12:08;101674.00;;;-1.20
67353;BMP180;54238;52.278;21.056;2023-03-01T01:14:38;101671.80;;;-1.26
67353;BMP180;54238;52.278;21.056;2023-03-01T01:17:11;101672.40;;;-1.24
67353;BMP180;54238;52.278;21.056;2023-03-01T01:19:40;101669.40;;;-1.22
67353;BMP180;54238;52.278;21.056;2023-03-01T01:22:13;101658.00;;;-1.20
67353;BMP180;54238;52.278;21.056;2023-03-01T01:24:45;101659.20;;;-1.20
67353;BMP180;54238;52.278;21.056;2023-03-01T01:27:16;101658.80;;;-1.20
67353;BMP180;54238;52.278;21.056;2023-03-01T01:29:45;101659.40;;;-1.20
67353;BMP180;54238;52.278;21.056;2023-03-01T01:32:15;101658.60;;;-1.20
67353;BMP180;54238;52.278;21.056;2023-03-01T01:34:42;101655.40;;;-1.20
67353;BMP180;54238;52.278;21.056;2023-03-01T01:37:12;101652.60;;;-1.20
67353;BMP180;54238;52.278;21.056;2023-03-01T01:39:43;101652.60;;;-1.20
67353;BMP180;54238;52.278;21.056;2023-03-01T01:42:19;101652.60;;;-1.20
67353;BMP180;54238;52.278;21.056;2023-03-01T01:48:03;101649.00;;;-1.20
67353;BMP180;54238;52.278;21.056;2023-03-01T01:50:39;101640.60;;;-1.20
67353;BMP180;54238;52.278;21.056;2023-03-01T01:53:15;101638.00;;;-1.20
67353;BMP180;54238;52.278;21.056;2023-03-01T01:55:58;101636.00;;;-1.20
67353;BMP180;54238;52.278;21.056;2023-03-01T01:58:29;101642.20;;;-1.18
67353;BMP180;54238;52.278;21.056;2023-03-01T02:00:57;101633.40;;;-1.18
67353;BMP180;54238;52.278;21.056;2023-03-01T02:03:33;101633.40;;;-1.10
67353;BMP180;54238;52.278;21.056;2023-03-01T02:06:15;101627.80;;;-1.10
67353;BMP180;54238;52.278;21.056;2023-03-01T02:08:49;101630.20;;;-1.10
67353;BMP180;54238;52.278;21.056;2023-03-01T02:11:22;101626.40;;;-1.10
67353;BMP180;54238;52.278;21.056;2023-03-01T02:13:55;101623.00;;;-1.10
67353;BMP180;54238;52.278;21.056;2023-03-01T02:16:22;101632.80;;;-1.10
67353;BMP180;54238;52.278;21.056;2023-03-01T02:18:52;101628.80;;;-1.10
67353;BMP180;54238;52.278;21.056;2023-03-01T02:27:13;101621.60;;;-1.10
67353;BMP180;54238;52.278;21.056;2023-03-01T02:29:43;101616.00;;;-1.10
67353;BMP180;54238;52.278;21.056;2023-03-01T02:32:14;101610.20;;;-1.14
67353;BMP180;54238;52.278;21.056;2023-03-01T02:34:42;101611.20;;;-1.20
67353;BMP180;54238;52.278;21.056;2023-03-01T02:37:15;101606.60;;;-1.20
67353;BMP180;54238;52.278;21.056;2023-03-01T02:39:52;101602.80;;;-1.20
67353;BMP180;54238;52.278;21.056;2023-03-01T02:42:33;101598.40;;;-1.20
67353;BMP180;54238;52.278;21.056;2023-03-01T02:45:08;101599.20;;;-1.20
67353;BMP180;54238;52.278;21.056;2023-03-01T02:47:37;101599.80;;;-1.20
67353;BMP180;54238;52.278;21.056;2023-03-01T02:56:16;101596.60;;;-1.28
67353;BMP180;54238;52.278;21.056;2023-03-01T02:58:47;101586.20;;;-1.30
67353;BMP180;54238;52.278;21.056;2023-03-01T03:01:20;101582.40;;;-1.30
67353;BMP180;54238;52.278;21.056;2023-03-01T03:03:49;101586.60;;;-1.30
67353;BMP180;54238;52.278;21.056;2023-03-01T03:06:16;101588.60;;;-1.30
67353;BMP180;54238;52.278;21.056;2023-03-01T03:08:49;101587.40;;;-1.36
67353;BMP180;54238;52.278;21.056;2023-03-01T03:11:18;101580.60;;;-1.40
67353;BMP180;54238;52.278;21.056;2023-03-01T03:13:48;101569.00;;;-1.40
67353;BMP180;54238;52.278;21.056;2023-03-01T03:16:15;101567.80;;;-1.40
67353;BMP180;54238;52.278;21.056;2023-03-01T03:18:44;101562.60;;;-1.40
67353;BMP180;54238;52.278;21.056;2023-03-01T03:21:15;101563.20;;;-1.40
67353;BMP180;54238;52.278;21.056;2023-03-01T03:23:51;101568.80;;;-1.40
67353;BMP180;54238;52.278;21.056;2023-03-01T03:26:20;101562.00;;;-1.40
67353;BMP180;54238;52.278;21.056;2023-03-01T03:28:47;101560.60;;;-1.44
67353;BMP180;54238;52.278;21.056;2023-03-01T03:31:14;101555.00;;;-1.50
67353;BMP180;54238;52.278;21.056;2023-03-01T03:33:46;101558.60;;;-1.50
67353;BMP180;54238;52.278;21.056;2023-03-01T03:36:22;101560.60;;;-1.50
67353;BMP180;54238;52.278;21.056;2023-03-01T03:38:55;101560.40;;;-1.50
67353;BMP180;54238;52.278;21.056;2023-03-01T03:41:24;101564.40;;;-1.50
67353;BMP180;54238;52.278;21.056;2023-03-01T03:43:54;101566.20;;;-1.46
67353;BMP180;54238;52.278;21.056;2023-03-01T03:46:21;101566.60;;;-1.40
67353;BMP180;54238;52.278;21.056;2023-03-01T03:48:51;101558.80;;;-1.40
67353;BMP180;54238;52.278;21.056;2023-03-01T03:51:20;101555.00;;;-1.40
67353;BMP180;54238;52.278;21.056;2023-03-01T03:53:52;101548.40;;;-1.40
67353;BMP180;54238;52.278;21.056;2023-03-01T03:56:21;101540.80;;;-1.40
67353;BMP180;54238;52.278;21.056;2023-03-01T03:58:52;101548.80;;;-1.38
67353;BMP180;54238;52.278;21.056;2023-03-01T04:01:20;101542.40;;;-1.38
67353;BMP180;54238;52.278;21.056;2023-03-01T04:03:50;101535.40;;;-1.34
67353;BMP180;54238;52.278;21.056;2023-03-01T04:06:21;101530.00;;;-1.40
67353;BMP180;54238;52.278;21.056;2023-03-01T04:08:48;101530.20;;;-1.40
67353;BMP180;54238;52.278;21.056;2023-03-01T04:11:27;101527.40;;;-1.40
67353;BMP180;54238;52.278;21.056;2023-03-01T04:13:57;101531.00;;;-1.40
67353;BMP180;54238;52.278;21.056;2023-03-01T04:16:31;101534.80;;;-1.40
67353;BMP180;54238;52.278;21.056;2023-03-01T04:19:00;101537.60;;;-1.46
67353;BMP180;54238;52.278;21.056;2023-03-01T04:21:29;101537.20;;;-1.50
67353;BMP180;54238;52.278;21.056;2023-03-01T04:23:57;101544.00;;;-1.50
67353;BMP180;54238;52.278;21.056;2023-03-01T04:26:24;101538.80;;;-1.50
67353;BMP180;54238;52.278;21.056;2023-03-01T04:28:53;101534.80;;;-1.50
67353;BMP180;54238;52.278;21.056;2023-03-01T04:31:21;101531.40;;;-1.50
67353;BMP180;54238;52.278;21.056;2023-03-01T04:33:55;101525.60;;;-1.50
67353;BMP180;54238;52.278;21.056;2023-03-01T04:36:25;101522.60;;;-1.50
67353;BMP180;54238;52.278;21.056;2023-03-01T04:38:57;101522.20;;;-1.50
67353;BMP180;54238;52.278;21.056;2023-03-01T04:41:25;101518.00;;;-1.50
67353;BMP180;54238;52.278;21.056;2023-03-01T04:43:53;101511.40;;;-1.60
67353;BMP180;54238;52.278;21.056;2023-03-01T04:46:23;101508.00;;;-1.60
67353;BMP180;54238;52.278;21.056;2023-03-01T04:48:53;101503.80;;;-1.60
67353;BMP180;54238;52.278;21.056;2023-03-01T04:51:23;101503.80;;;-1.60
67353;BMP180;54238;52.278;21.056;2023-03-01T04:53:55;101507.20;;;-1.60
67353;BMP180;54238;52.278;21.056;2023-03-01T04:56:24;101504.20;;;-1.60
67353;BMP180;54238;52.278;21.056;2023-03-01T04:58:53;101504.40;;;-1.60
67353;BMP180;54238;52.278;21.056;2023-03-01T05:01:21;101503.80;;;-1.60
67353;BMP180;54238;52.278;21.056;2023-03-01T05:03:52;101498.20;;;-1.60
67353;BMP180;54238;52.278;21.056;2023-03-01T05:06:21;101497.00;;;-1.64
67353;BMP180;54238;52.278;21.056;2023-03-01T05:08:51;101499.80;;;-1.70
67353;BMP180;54238;52.278;21.056;2023-03-01T05:11:22;101508.20;;;-1.70
67353;BMP180;54238;52.278;21.056;2023-03-01T05:13:52;101514.60;;;-1.70
67353;BMP180;54238;52.278;21.056;2023-03-01T05:16:24;101520.20;;;-1.64
67353;BMP180;54238;52.278;21.056;2023-03-01T05:18:51;101515.00;;;-1.68
67353;BMP180;54238;52.278;21.056;2023-03-01T05:21:22;101512.80;;;-1.68
67353;BMP180;54238;52.278;21.056;2023-03-01T05:23:54;101514.20;;;-1.70
67353;BMP180;54238;52.278;21.056;2023-03-01T05:26:23;101516.00;;;-1.70
67353;BMP180;54238;52.278;21.056;2023-03-01T05:28:55;101525.00;;;-1.70
67353;BMP180;54238;52.278;21.056;2023-03-01T05:31:28;101530.00;;;-1.70
67353;BMP180;54238;52.278;21.056;2023-03-01T05:33:59;101534.40;;;-1.70
67353;BMP180;54238;52.278;21.056;2023-03-01T05:36:27;101538.80;;;-1.70
67353;BMP180;54238;52.278;21.056;2023-03-01T05:38:54;101544.00;;;-1.70
67353;BMP180;54238;52.278;21.056;2023-03-01T05:41:28;101547.40;;;-1.68
67353;BMP180;54238;52.278;21.056;2023-03-01T05:43:56;101543.00;;;-1.68
67353;BMP180;54238;52.278;21.056;2023-03-01T05:46:23;101543.40;;;-1.68
67353;BMP180;54238;52.278;21.056;2023-03-01T05:48:51;101545.40;;;-1.70
67353;BMP180;54238;52.278;21.056;2023-03-01T05:51:20;101542.40;;;-1.68
67353;BMP180;54238;52.278;21.056;2023-03-01T05:53:51;101549.00;;;-1.70
67353;BMP180;54238;52.278;21.056;2023-03-01T05:56:25;101551.60;;;-1.60
67353;BMP180;54238;52.278;21.056;2023-03-01T05:58:52;101551.40;;;-1.60
67353;BMP180;54238;52.278;21.056;2023-03-01T06:01:28;101553.00;;;-1.60
67353;BMP180;54238;52.278;21.056;2023-03-01T06:03:56;101547.80;;;-1.60
67353;BMP180;54238;52.278;21.056;2023-03-01T06:09:25;101548.60;;;-1.50
67353;BMP180;54238;52.278;21.056;2023-03-01T06:11:55;101543.00;;;-1.50
67353;BMP180;54238;52.278;21.056;2023-03-01T06:14:24;101545.80;;;-1.50
67353;BMP180;54238;52.278;21.056;2023-03-01T06:16:59;101545.60;;;-1.50
67353;BMP180;54238;52.278;21.056;2023-03-01T06:19:31;101543.00;;;-1.50
67353;BMP180;54238;52.278;21.056;2023-03-01T06:22:00;101537.20;;;-1.42
67353;BMP180;54238;52.278;21.056;2023-03-01T06:24:32;101535.20;;;-1.40
67353;BMP180;54238;52.278;21.056;2023-03-01T06:27:03;101539.60;;;-1.40
67353;BMP180;54238;52.278;21.056;2023-03-01T06:29:30;101538.20;;;-1.30
67353;BMP180;54238;52.278;21.056;2023-03-01T06:32:02;101541.20;;;-1.30
67353;BMP180;54238;52.278;21.056;2023-03-01T06:34:40;101541.80;;;-1.20
67353;BMP180;54238;52.278;21.056;2023-03-01T06:37:09;101537.40;;;-1.20
67353;BMP180;54238;52.278;21.056;2023-03-01T06:39:39;101539.00;;;-1.10
67353;BMP180;54238;52.278;21.056;2023-03-01T06:42:08;101545.00;;;-1.10
67353;BMP180;54238;52.278;21.056;2023-03-01T06:44:37;101544.40;;;-1.00
67353;BMP180;54238;52.278;21.056;2023-03-01T06:47:04;101546.60;;;-1.00
67353;BMP180;54238;52.278;21.056;2023-03-01T06:49:38;101537.00;;;-0.90
67353;BMP180;54238;52.278;21.056;2023-03-01T06:52:10;101534.20;;;-0.90
67353;BMP180;54238;52.278;21.056;2023-03-01T06:54:42;101543.80;;;-0.80
67353;BMP180;54238;52.278;21.056;2023-03-01T06:57:09;101546.80;;;-0.78
67353;BMP180;54238;52.278;21.056;2023-03-01T06:59:39;101547.40;;;-0.70
67353;BMP180;54238;52.278;21.056;2023-03-01T07:02:06;101553.80;;;-0.60
67353;BMP180;54238;52.278;21.056;2023-03-01T07:04:35;101553.80;;;-0.60
67353;BMP180;54238;52.278;21.056;2023-03-01T07:07:02;101553.80;;;-0.50
67353;BMP180;54238;52.278;21.056;2023-03-01T07:09:29;101557.20;;;-0.50
67353;BMP180;54238;52.278;21.056;2023-03-01T07:12:01;101558.40;;;-0.50
67353;BMP180;54238;52.278;21.056;2023-03-01T07:14:31;101554.40;;;-0.40
67353;BMP180;54238;52.278;21.056;2023-03-01T07:16:58;101556.40;;;-0.30
67353;BMP180;54238;52.278;21.056;2023-03-01T07:19:25;101548.60;;;-0.30
67353;BMP180;54238;52.278;21.056;2023-03-01T07:21:52;101543.80;;;-0.20
67353;BMP180;54238;52.278;21.056;2023-03-01T07:24:22;101537.40;;;-0.14
67353;BMP180;54238;52.278;21.056;2023-03-01T07:26:50;101532.80;;;-0.10
67353;BMP180;54238;52.278;21.056;2023-03-01T07:29:20;101531.60;;;0.00
67353;BMP180;54238;52.278;21.056;2023-03-01T07:31:50;101532.60;;;0.00
67353;BMP180;54238;52.278;21.056;2023-03-01T07:34:22;101526.80;;;0.10
67353;BMP180;54238;52.278;21.056;2023-03-01T07:36:52;101528.20;;;0.10
67353;BMP180;54238;52.278;21.056;2023-03-01T07:39:24;101531.20;;;0.20
67353;BMP180;54238;52.278;21.056;2023-03-01T07:41:56;101535.40;;;0.30
67353;BMP180;54238;52.278;21.056;2023-03-01T07:44:26;101539.60;;;0.44
67353;BMP180;54238;52.278;21.056;2023-03-01T07:46:55;101537.20;;;0.60
67353;BMP180;54238;52.278;21.056;2023-03-01T07:49:25;101535.40;;;0.70
67353;BMP180;54238;52.278;21.056;2023-03-01T07:51:59;101536.60;;;0.86
67353;BMP180;54238;52.278;21.056;2023-03-01T07:54:28;101533.40;;;1.00
67353;BMP180;54238;52.278;21.056;2023-03-01T07:56:58;101536.60;;;1.12
67353;BMP180;54238;52.278;21.056;2023-03-01T07:59:26;101541.20;;;1.30
67353;BMP180;54238;52.278;21.056;2023-03-01T08:01:56;101535.40;;;1.40
67353;BMP180;54238;52.278;21.056;2023-03-01T08:04:26;101533.20;;;1.54
67353;BMP180;54238;52.278;21.056;2023-03-01T08:06:58;101540.20;;;1.72
67353;BMP180;54238;52.278;21.056;2023-03-01T08:09:29;101543.00;;;1.90
67353;BMP180;54238;52.278;21.056;2023-03-01T08:11:58;101538.80;;;2.10
67353;BMP180;54238;52.278;21.056;2023-03-01T08:14:34;101542.80;;;2.28
67353;BMP180;54238;52.278;21.056;2023-03-01T08:17:01;101543.60;;;2.50
67353;BMP180;54238;52.278;21.056;2023-03-01T08:19:30;101548.00;;;2.70
67353;BMP180;54238;52.278;21.056;2023-03-01T08:21:57;101549.20;;;2.92
67353;BMP180;54238;52.278;21.056;2023-03-01T08:24:30;101548.60;;;3.10
67353;BMP180;54238;52.278;21.056;2023-03-01T08:26:59;101553.80;;;3.20
67353;BMP180;54238;52.278;21.056;2023-03-01T08:29:26;101554.80;;;3.40
67353;BMP180;54238;52.278;21.056;2023-03-01T08:31:56;101555.00;;;3.60
67353;BMP180;54238;52.278;21.056;2023-03-01T08:34:26;101548.00;;;3.80
67353;BMP180;54238;52.278;21.056;2023-03-01T08:36:55;101542.00;;;3.90
67353;BMP180;54238;52.278;21.056;2023-03-01T08:39:25;101535.80;;;3.90
67353;BMP180;54238;52.278;21.056;2023-03-01T08:41:52;101541.00;;;3.92
67353;BMP180;54238;52.278;21.056;2023-03-01T08:44:21;101545.20;;;4.10
67353;BMP180;54238;52.278;21.056;2023-03-01T08:46:53;101548.80;;;4.20
67353;BMP180;54238;52.278;21.056;2023-03-01T08:49:27;101549.60;;;4.38
67353;BMP180;54238;52.278;21.056;2023-03-01T08:51:57;101551.40;;;4.70
67353;BMP180;54238;52.278;21.056;2023-03-01T08:54:31;101553.80;;;5.00
67353;BMP180;54238;52.278;21.056;2023-03-01T08:57:03;101555.00;;;5.10
67353;BMP180;54238;52.278;21.056;2023-03-01T08:59:32;101557.60;;;5.30
67353;BMP180;54238;52.278;21.056;2023-03-01T09:02:13;101560.60;;;5.50
67353;BMP180;54238;52.278;21.056;2023-03-01T09:04:41;101561.20;;;5.60
67353;BMP180;54238;52.278;21.056;2023-03-01T09:07:10;101556.80;;;5.80
67353;BMP180;54238;52.278;21.056;2023-03-01T09:09:38;101555.20;;;5.94
67353;BMP180;54238;52.278;21.056;2023-03-01T09:12:05;101555.00;;;6.22
67353;BMP180;54238;52.278;21.056;2023-03-01T09:14:35;101560.60;;;6.62
67353;BMP180;54238;52.278;21.056;2023-03-01T09:17:04;101561.20;;;6.90
67353;BMP180;54238;52.278;21.056;2023-03-01T09:19:31;101552.20;;;7.10
67353;BMP180;54238;52.278;21.056;2023-03-01T09:21:58;101551.20;;;7.30
67353;BMP180;54238;52.278;21.056;2023-03-01T09:24:31;101550.80;;;7.40
67353;BMP180;54238;52.278;21.056;2023-03-01T09:26:58;101551.40;;;7.50
67353;BMP180;54238;52.278;21.056;2023-03-01T09:29:27;101544.20;;;7.50
67353;BMP180;54238;52.278;21.056;2023-03-01T09:31:54;101538.60;;;7.50
67353;BMP180;54238;52.278;21.056;2023-03-01T09:34:22;101538.00;;;7.60
67353;BMP180;54238;52.278;21.056;2023-03-01T09:36:50;101539.40;;;7.80
67353;BMP180;54238;52.278;21.056;2023-03-01T09:39:20;101537.80;;;7.90
67353;BMP180;54238;52.278;21.056;2023-03-01T09:42:02;101531.20;;;8.14
67353;BMP180;54238;52.278;21.056;2023-03-01T09:47:24;101532.20;;;8.92
67353;BMP180;54238;52.278;21.056;2023-03-01T09:52:42;101543.00;;;9.88
67353;BMP180;54238;52.278;21.056;2023-03-01T09:55:32;101541.60;;;10.28
67353;BMP180;54238;52.278;21.056;2023-03-01T10:01:35;101528.80;;;11.46
67353;BMP180;54238;52.278;21.056;2023-03-01T10:04:44;101523.80;;;12.08
67353;BMP180;54238;52.278;21.056;2023-03-01T10:07:29;101521.00;;;12.40
67353;BMP180;54238;52.278;21.056;2023-03-01T10:10:07;101514.60;;;12.50
67353;BMP180;54238;52.278;21.056;2023-03-01T10:12:42;101512.40;;;12.70
67353;BMP180;54238;52.278;21.056;2023-03-01T10:15:35;101519.80;;;12.90
67353;BMP180;54238;52.278;21.056;2023-03-01T10:18:14;101521.40;;;12.90
67353;BMP180;54238;52.278;21.056;2023-03-01T10:23:32;101512.00;;;13.00
67353;BMP180;54238;52.278;21.056;2023-03-01T10:29:05;101509.40;;;13.30
67353;BMP180;54238;52.278;21.056;2023-03-01T10:31:51;101511.80;;;13.50
67353;BMP180;54238;52.278;21.056;2023-03-01T10:34:21;101501.00;;;13.90
67353;BMP180;54238;52.278;21.056;2023-03-01T10:36:56;101507.00;;;14.38
67353;BMP180;54238;52.278;21.056;2023-03-01T10:39:26;101507.80;;;14.40
67353;BMP180;54238;52.278;21.056;2023-03-01T10:42:05;101503.80;;;14.50
67353;BMP180;54238;52.278;21.056;2023-03-01T10:44:39;101500.20;;;14.92
67353;BMP180;54238;52.278;21.056;2023-03-01T10:47:27;101511.00;;;15.20
67353;BMP180;54238;52.278;21.056;2023-03-01T10:50:06;101503.60;;;15.30
67353;BMP180;54238;52.278;21.056;2023-03-01T10:53:49;101498.00;;;15.60
67353;BMP180;54238;52.278;21.056;2023-03-01T10:56:15;101504.00;;;15.80
67353;BMP180;54238;52.278;21.056;2023-03-01T10:59:04;101504.40;;;16.00
67353;BMP180;54238;52.278;21.056;2023-03-01T11:01:35;101509.40;;;16.30
67353;BMP180;54238;52.278;21.056;2023-03-01T11:06:43;101509.00;;;16.60
67353;BMP180;54238;52.278;21.056;2023-03-01T11:09:24;101502.60;;;16.68
67353;BMP180;54238;52.278;21.056;2023-03-01T11:12:00;101495.40;;;16.80
67353;BMP180;54238;52.278;21.056;2023-03-01T11:14:38;101501.20;;;16.90
67353;BMP180;54238;52.278;21.056;2023-03-01T11:17:30;101498.60;;;16.92
67353;BMP180;54238;52.278;21.056;2023-03-01T11:22:53;101495.20;;;17.08
67353;BMP180;54238;52.278;21.056;2023-03-01T11:25:29;101490.60;;;17.28
67353;BMP180;54238;52.278;21.056;2023-03-01T11:28:10;101494.80;;;17.60
67353;BMP180;54238;52.278;21.056;2023-03-01T11:31:05;101490.80;;;17.60
67353;BMP180;54238;52.278;21.056;2023-03-01T11:36:38;101482.40;;;17.90
67353;BMP180;54238;52.278;21.056;2023-03-01T11:39:37;101479.40;;;17.78
67353;BMP180;54238;52.278;21.056;2023-03-01T11:45:23;101486.00;;;18.30
67353;BMP180;54238;52.278;21.056;2023-03-01T11:50:57;101491.60;;;18.08
67353;BMP180;54238;52.278;21.056;2023-03-01T11:59:17;101494.60;;;17.50
67353;BMP180;54238;52.278;21.056;2023-03-01T12:05:43;101488.00;;;16.30
67353;BMP180;54238;52.278;21.056;2023-03-01T12:08:23;101479.80;;;16.32
67353;BMP180;54238;52.278;21.056;2023-03-01T12:13:59;101483.60;;;16.72
67353;BMP180;54238;52.278;21.056;2023-03-01T12:16:38;101493.20;;;16.90
67353;BMP180;54238;52.278;21.056;2023-03-01T12:22:34;101480.40;;;17.20
67353;BMP180;54238;52.278;21.056;2023-03-01T12:25:23;101477.40;;;17.50
67353;BMP180;54238;52.278;21.056;2023-03-01T12:33:49;101481.40;;;18.70
67353;BMP180;54238;52.278;21.056;2023-03-01T12:51:28;101467.80;;;20.64
67353;BMP180;54238;52.278;21.056;2023-03-01T12:54:05;101469.20;;;20.70
67353;BMP180;54238;52.278;21.056;2023-03-01T12:56:37;101465.20;;;20.60
67353;BMP180;54238;52.278;21.056;2023-03-01T12:59:51;101465.40;;;20.44
67353;BMP180;54238;52.278;21.056;2023-03-01T13:02:39;101464.80;;;20.60
67353;BMP180;54238;52.278;21.056;2023-03-01T13:11:25;101465.80;;;21.00
67353;BMP180;54238;52.278;21.056;2023-03-01T13:16:53;101459.40;;;21.48
67353;BMP180;54238;52.278;21.056;2023-03-01T13:19:25;101455.40;;;22.22
67353;BMP180;54238;52.278;21.056;2023-03-01T13:21:58;101464.00;;;22.48
67353;BMP180;54238;52.278;21.056;2023-03-01T13:29:58;101454.60;;;22.24
67353;BMP180;54238;52.278;21.056;2023-03-01T13:36:02;101464.00;;;21.00
67353;BMP180;54238;52.278;21.056;2023-03-01T13:46:59;101444.40;;;21.50
67353;BMP180;54238;52.278;21.056;2023-03-01T13:49:55;101448.20;;;21.46
67353;BMP180;54238;52.278;21.056;2023-03-01T13:52:37;101445.40;;;21.48
67353;BMP180;54238;52.278;21.056;2023-03-01T13:55:44;101440.00;;;21.68
67353;BMP180;54238;52.278;21.056;2023-03-01T13:58:27;101442.60;;;22.10
67353;BMP180;54238;52.278;21.056;2023-03-01T14:01:07;101437.80;;;21.60
67353;BMP180;54238;52.278;21.056;2023-03-01T14:03:52;101430.60;;;21.72
67353;BMP180;54238;52.278;21.056;2023-03-01T14:06:34;101435.20;;;21.90
67353;BMP180;54238;52.278;21.056;2023-03-01T14:09:05;101432.60;;;21.90
67353;BMP180;54238;52.278;21.056;2023-03-01T14:11:45;101432.40;;;21.90
67353;BMP180;54238;52.278;21.056;2023-03-01T14:18:01;101426.40;;;22.10
67353;BMP180;54238;52.278;21.056;2023-03-01T14:20:40;101421.20;;;22.04
67353;BMP180;54238;52.278;21.056;2023-03-01T14:23:17;101424.80;;;22.20
67353;BMP180;54238;52.278;21.056;2023-03-01T14:25:55;101418.80;;;21.86
67353;BMP180;54238;52.278;21.056;2023-03-01T14:28:33;101421.80;;;22.10
67353;BMP180;54238;52.278;21.056;2023-03-01T14:31:39;101424.40;;;22.24
67353;BMP180;54238;52.278;21.056;2023-03-01T14:34:23;101420.00;;;21.94
67353;BMP180;54238;52.278;21.056;2023-03-01T14:36:51;101416.80;;;21.62
67353;BMP180;54238;52.278;21.056;2023-03-01T14:39:24;101410.40;;;21.14
67353;BMP180;54238;52.278;21.056;2023-03-01T14:41:55;101417.60;;;20.72
67353;BMP180;54238;52.278;21.056;2023-03-01T14:44:24;101409.40;;;19.80
67353;BMP180;54238;52.278;21.056;2023-03-01T14:46:57;101401.80;;;19.60
67353;BMP180;54238;52.278;21.056;2023-03-01T14:49:31;101395.40;;;19.60
67353;BMP180;54238;52.278;21.056;2023-03-01T14:52:22;101398.40;;;19.46
67353;BMP180;54238;52.278;21.056;2023-03-01T14:54:55;101395.20;;;19.22
67353;BMP180;54238;52.278;21.056;2023-03-01T14:57:27;101391.00;;;19.10
67353;BMP180;54238;52.278;21.056;2023-03-01T15:00:00;101399.20;;;19.00
67353;BMP180;54238;52.278;21.056;2023-03-01T15:02:37;101393.20;;;18.70
67353;BMP180;54238;52.278;21.056;2023-03-01T15:05:13;101387.40;;;18.40
67353;BMP180;54238;52.278;21.056;2023-03-01T15:07:43;101387.60;;;17.90
67353;BMP180;54238;52.278;21.056;2023-03-01T15:10:38;101388.60;;;17.04
67353;BMP180;54238;52.278;21.056;2023-03-01T15:13:23;101392.00;;;16.14
67353;BMP180;54238;52.278;21.056;2023-03-01T15:18:36;101381.80;;;15.14
67353;BMP180;54238;52.278;21.056;2023-03-01T15:26:42;101371.20;;;14.16
67353;BMP180;54238;52.278;21.056;2023-03-01T15:29:20;101365.80;;;13.66
67353;BMP180;54238;52.278;21.056;2023-03-01T15:32:05;101362.40;;;13.42
67353;BMP180;54238;52.278;21.056;2023-03-01T15:34:41;101363.20;;;13.06
67353;BMP180;54238;52.278;21.056;2023-03-01T15:37:49;101355.60;;;12.42
67353;BMP180;54238;52.278;21.056;2023-03-01T15:40:28;101351.60;;;11.80
67353;BMP180;54238;52.278;21.056;2023-03-01T15:43:14;101354.20;;;11.32
67353;BMP180;54238;52.278;21.056;2023-03-01T15:45:59;101356.20;;;10.90
67353;BMP180;54238;52.278;21.056;2023-03-01T15:48:27;101355.60;;;10.80
67353;BMP180;54238;52.278;21.056;2023-03-01T15:50:58;101358.20;;;10.60
67353;BMP180;54238;52.278;21.056;2023-03-01T15:53:29;101358.00;;;10.30
67353;BMP180;54238;52.278;21.056;2023-03-01T15:56:01;101353.60;;;10.04
67353;BMP180;54238;52.278;21.056;2023-03-01T15:58:30;101349.40;;;9.74
67353;BMP180;54238;52.278;21.056;2023-03-01T16:01:00;101343.20;;;9.48
67353;BMP180;54238;52.278;21.056;2023-03-01T16:03:29;101338.40;;;9.20
67353;BMP180;54238;52.278;21.056;2023-03-01T16:05:57;101333.60;;;9.10
67353;BMP180;54238;52.278;21.056;2023-03-01T16:08:27;101331.60;;;8.90
67353;BMP180;54238;52.278;21.056;2023-03-01T16:10:54;101328.00;;;8.68
67353;BMP180;54238;52.278;21.056;2023-03-01T16:13:27;101332.00;;;8.40
67353;BMP180;54238;52.278;21.056;2023-03-01T16:15:59;101332.80;;;8.20
67353;BMP180;54238;52.278;21.056;2023-03-01T16:18:26;101333.60;;;8.10
67353;BMP180;54238;52.278;21.056;2023-03-01T16:20:54;101334.80;;;7.90
67353;BMP180;54238;52.278;21.056;2023-03-01T16:23:21;101334.80;;;7.76